createdAt,value
2023-08-21T00:00:10.249Z,16.81
2023-08-21T00:02:37.034Z,16.85
2023-08-21T00:05:03.926Z,16.82
2023-08-21T00:07:30.405Z,16.82
2023-08-21T00:09:56.900Z,16.79
2023-08-21T00:12:23.663Z,16.80
2023-08-21T00:14:50.174Z,16.79
2023-08-21T00:17:16.680Z,16.78
2023-08-21T00:19:43.179Z,16.80
2023-08-21T00:22:09.682Z,16.79
2023-08-21T00:24:36.150Z,16.76
2023-08-21T00:27:04.750Z,16.75
2023-08-21T00:29:31.309Z,16.76
2023-08-21T00:31:57.785Z,16.75
2023-08-21T00:34:24.346Z,16.72
2023-08-21T00:36:50.860Z,16.70
2023-08-21T00:39:17.382Z,16.70
2023-08-21T00:41:43.855Z,16.68
2023-08-21T00:44:10.416Z,16.70
2023-08-21T00:46:36.933Z,16.68
2023-08-21T00:49:03.755Z,16.65
2023-08-21T00:51:30.497Z,16.66
2023-08-21T00:53:57.268Z,16.69
2023-08-21T00:56:23.871Z,16.69
2023-08-21T00:58:50.531Z,16.67
2023-08-21T01:01:19.553Z,16.66
2023-08-21T01:03:46.152Z,16.61
2023-08-21T01:06:13.288Z,16.59
2023-08-21T01:08:39.729Z,16.60
2023-08-21T01:11:21.386Z,16.61
2023-08-21T01:14:12.238Z,16.62
2023-08-21T01:16:40.286Z,16.59
2023-08-21T01:19:17.386Z,16.57
2023-08-21T01:21:43.966Z,16.55
2023-08-21T01:24:10.468Z,16.56
2023-08-21T01:26:36.989Z,16.56
2023-08-21T01:29:03.970Z,16.56
2023-08-21T01:31:37.981Z,16.53
2023-08-21T01:34:10.025Z,16.54
2023-08-21T01:36:37.083Z,16.55
2023-08-21T01:39:04.657Z,16.54
2023-08-21T01:41:31.159Z,16.52
2023-08-21T01:43:57.646Z,16.52
2023-08-21T01:46:24.153Z,16.52
2023-08-21T01:48:50.640Z,16.51
2023-08-21T01:51:17.244Z,16.54
2023-08-21T01:53:43.765Z,16.52
2023-08-21T01:56:10.267Z,16.53
2023-08-21T01:58:36.758Z,16.56
2023-08-21T02:01:04.925Z,16.56
2023-08-21T02:03:31.912Z,16.56
2023-08-21T02:06:01.386Z,16.54
2023-08-21T02:08:34.610Z,16.53
2023-08-21T02:11:01.953Z,16.53
2023-08-21T02:13:28.501Z,16.51
2023-08-21T02:15:55.165Z,16.51
2023-08-21T02:18:21.710Z,16.51
2023-08-21T02:20:49.449Z,16.49
2023-08-21T02:23:16.597Z,16.51
2023-08-21T02:25:43.475Z,16.51
2023-08-21T02:28:09.980Z,16.53
2023-08-21T02:30:36.476Z,16.55
2023-08-21T02:33:03.216Z,16.54
2023-08-21T02:35:29.718Z,16.55
2023-08-21T02:37:56.202Z,16.57
2023-08-21T02:40:22.777Z,16.58
2023-08-21T02:42:49.235Z,16.57
2023-08-21T02:45:15.793Z,16.58
2023-08-21T02:47:43.442Z,16.59
2023-08-21T02:50:11.026Z,16.60
2023-08-21T02:52:38.316Z,16.60
2023-08-21T02:55:05.897Z,16.57
2023-08-21T02:57:32.472Z,16.54
2023-08-21T02:59:59.027Z,16.53
2023-08-21T03:02:25.891Z,16.54
2023-08-21T03:04:53.194Z,16.57
2023-08-21T03:07:20.257Z,16.56
2023-08-21T03:09:50.701Z,16.55
2023-08-21T03:12:17.193Z,16.52
2023-08-21T03:14:43.808Z,16.52
2023-08-21T03:17:10.365Z,16.56
2023-08-21T03:19:36.866Z,16.56
2023-08-21T03:22:03.776Z,16.58
2023-08-21T03:24:30.289Z,16.60
2023-08-21T03:26:56.777Z,16.63
2023-08-21T03:29:23.320Z,16.63
2023-08-21T03:31:55.736Z,16.65
2023-08-21T03:34:22.416Z,16.65
2023-08-21T03:36:48.969Z,16.65
2023-08-21T03:39:15.691Z,16.64
2023-08-21T03:41:42.156Z,16.67
2023-08-21T03:44:08.634Z,16.67
2023-08-21T03:46:35.191Z,16.66
2023-08-21T03:49:01.801Z,16.64
2023-08-21T03:51:28.321Z,16.60
2023-08-21T03:53:54.809Z,16.59
2023-08-21T03:56:22.438Z,16.58
2023-08-21T03:58:49.382Z,16.54
2023-08-21T04:01:16.987Z,16.52
2023-08-21T04:03:43.878Z,16.46
2023-08-21T04:06:10.436Z,16.46
2023-08-21T04:08:36.947Z,16.43
2023-08-21T04:11:03.449Z,16.46
2023-08-21T04:13:30.033Z,16.47
2023-08-21T04:15:57.910Z,16.45
2023-08-21T04:18:38.615Z,16.44
2023-08-21T04:21:08.374Z,16.43
2023-08-21T04:23:34.908Z,16.43
2023-08-21T04:26:03.514Z,16.45
2023-08-21T04:28:34.021Z,16.46
2023-08-21T04:31:00.880Z,16.48
2023-08-21T04:33:29.462Z,16.48
2023-08-21T04:35:56.000Z,16.47
2023-08-21T04:38:22.513Z,16.45
2023-08-21T04:40:49.032Z,16.40
2023-08-21T04:43:15.661Z,16.39
2023-08-21T04:45:54.140Z,16.41
2023-08-21T04:48:21.425Z,16.42
2023-08-21T04:50:48.356Z,16.41
2023-08-21T04:53:14.955Z,16.40
2023-08-21T04:55:41.723Z,16.42
2023-08-21T04:58:09.122Z,16.43
2023-08-21T05:00:35.794Z,16.43
2023-08-21T05:03:02.910Z,16.42
2023-08-21T05:05:29.496Z,16.41
2023-08-21T05:07:56.121Z,16.40
2023-08-21T05:10:22.685Z,16.36
2023-08-21T05:12:49.320Z,16.38
2023-08-21T05:15:16.063Z,16.37
2023-08-21T05:17:42.653Z,16.36
2023-08-21T05:20:09.686Z,16.38
2023-08-21T05:22:36.640Z,16.43
2023-08-21T05:25:03.636Z,16.45
2023-08-21T05:27:30.293Z,16.47
2023-08-21T05:29:56.803Z,16.51
2023-08-21T05:32:23.380Z,16.53
2023-08-21T05:34:49.936Z,16.56
2023-08-21T05:37:16.431Z,16.58
2023-08-21T05:39:42.971Z,16.59
2023-08-21T05:42:09.465Z,16.59
2023-08-21T05:44:35.951Z,16.64
2023-08-21T05:47:02.482Z,16.72
2023-08-21T05:49:29.038Z,16.82
2023-08-21T05:51:59.675Z,16.89
2023-08-21T05:54:27.333Z,16.99
2023-08-21T05:56:53.897Z,17.12
2023-08-21T05:59:33.426Z,17.23
2023-08-21T06:02:00.035Z,17.35
2023-08-21T06:04:28.145Z,17.49
2023-08-21T06:06:54.893Z,17.60
2023-08-21T06:09:21.456Z,17.71
2023-08-21T06:11:47.959Z,17.82
2023-08-21T06:14:14.625Z,17.94
2023-08-21T06:16:41.353Z,18.07
2023-08-21T06:19:08.148Z,18.18
2023-08-21T06:21:34.690Z,18.26
2023-08-21T06:24:01.197Z,18.35
2023-08-21T06:26:27.822Z,18.47
2023-08-21T06:28:54.367Z,18.54
2023-08-21T06:31:21.562Z,18.64
2023-08-21T06:33:48.171Z,18.73
2023-08-21T06:36:14.691Z,18.80
2023-08-21T06:38:41.202Z,18.85
2023-08-21T06:41:12.003Z,18.85
2023-08-21T06:43:41.648Z,18.94
2023-08-21T06:46:10.317Z,19.02
2023-08-21T06:48:40.980Z,19.12
2023-08-21T06:51:08.077Z,19.22
2023-08-21T06:53:35.429Z,19.30
2023-08-21T06:56:02.065Z,19.38
2023-08-21T06:58:28.611Z,19.44
2023-08-21T07:00:55.990Z,19.49
2023-08-21T07:03:23.526Z,19.54
2023-08-21T07:06:00.804Z,19.63
2023-08-21T07:08:29.017Z,19.70
2023-08-21T07:10:56.065Z,19.72
2023-08-21T07:13:22.612Z,19.77
2023-08-21T07:15:49.146Z,19.85
2023-08-21T07:18:15.960Z,20.03
2023-08-21T07:20:42.773Z,20.16
2023-08-21T07:23:09.444Z,20.24
2023-08-21T07:25:36.220Z,20.23
2023-08-21T07:28:02.872Z,20.23
2023-08-21T07:30:29.521Z,20.26
2023-08-21T07:32:56.367Z,20.22
2023-08-21T07:35:23.024Z,20.17
2023-08-21T07:37:49.604Z,20.16
2023-08-21T07:40:16.160Z,20.26
2023-08-21T07:42:42.746Z,20.43
2023-08-21T07:45:09.539Z,20.64
2023-08-21T07:47:37.375Z,20.86
2023-08-21T07:50:05.541Z,21.02
2023-08-21T07:52:32.094Z,21.12
2023-08-21T07:55:00.290Z,21.16
2023-08-21T07:57:27.100Z,21.12
2023-08-21T07:59:55.630Z,21.15
2023-08-21T08:02:22.634Z,21.15
2023-08-21T08:04:49.112Z,21.28
2023-08-21T08:07:15.630Z,21.36
2023-08-21T08:09:42.170Z,21.35
2023-08-21T08:12:09.631Z,21.46
2023-08-21T08:14:36.419Z,21.62
2023-08-21T08:17:02.973Z,21.70
2023-08-21T08:19:29.518Z,21.68
2023-08-21T08:21:56.001Z,21.62
2023-08-21T08:24:22.509Z,21.71
2023-08-21T08:26:49.820Z,21.89
2023-08-21T08:29:16.315Z,21.94
2023-08-21T08:31:42.854Z,21.97
2023-08-21T08:34:09.483Z,22.15
2023-08-21T08:36:36.359Z,22.25
2023-08-21T08:39:03.097Z,22.43
2023-08-21T08:41:42.515Z,22.56
2023-08-21T08:44:09.416Z,22.67
2023-08-21T08:46:37.609Z,22.75
2023-08-21T08:49:04.774Z,22.77
2023-08-21T08:51:35.090Z,22.83
2023-08-21T08:54:02.029Z,22.88
2023-08-21T08:56:28.536Z,23.01
2023-08-21T08:58:55.082Z,23.10
2023-08-21T09:01:21.670Z,23.19
2023-08-21T09:03:51.159Z,23.21
2023-08-21T09:06:17.850Z,23.20
2023-08-21T09:08:57.897Z,23.27
2023-08-21T09:11:24.951Z,23.35
2023-08-21T09:13:52.537Z,23.38
2023-08-21T09:16:23.367Z,23.45
2023-08-21T09:18:51.794Z,23.51
2023-08-21T09:21:23.063Z,23.57
2023-08-21T09:23:57.177Z,23.64
2023-08-21T09:26:24.528Z,23.68
2023-08-21T09:28:52.129Z,23.77
2023-08-21T09:31:24.699Z,23.84
2023-08-21T09:33:58.627Z,23.86
2023-08-21T09:36:25.542Z,23.92
2023-08-21T09:38:53.618Z,23.96
2023-08-21T09:41:22.136Z,24.03
2023-08-21T09:43:48.789Z,24.06
2023-08-21T09:46:19.623Z,24.07
2023-08-21T09:48:47.620Z,24.16
2023-08-21T09:51:14.156Z,24.19
2023-08-21T09:53:42.045Z,24.27
2023-08-21T09:56:12.468Z,24.33
2023-08-21T09:58:39.104Z,24.35
2023-08-21T10:01:12.945Z,24.37
2023-08-21T10:03:41.516Z,24.44
2023-08-21T10:06:10.487Z,24.54
2023-08-21T10:08:41.377Z,24.51
2023-08-21T10:11:09.808Z,24.59
2023-08-21T10:13:38.749Z,24.48
2023-08-21T10:16:06.502Z,24.39
2023-08-21T10:18:35.021Z,24.51
2023-08-21T10:21:21.778Z,24.54
2023-08-21T10:23:55.402Z,24.64
2023-08-21T10:26:23.839Z,24.58
2023-08-21T10:28:53.497Z,24.70
2023-08-21T10:31:40.772Z,24.83
2023-08-21T10:34:13.718Z,24.93
2023-08-21T10:36:43.469Z,24.92
2023-08-21T10:39:21.508Z,25.02
2023-08-21T10:42:15.029Z,25.10
2023-08-21T10:44:49.164Z,25.08
2023-08-21T10:47:18.822Z,25.18
2023-08-21T10:49:58.359Z,25.24
2023-08-21T10:52:27.536Z,25.39
2023-08-21T10:54:56.214Z,25.43
2023-08-21T10:57:24.536Z,25.12
2023-08-21T11:00:13.629Z,25.12
2023-08-21T11:02:43.802Z,25.17
2023-08-21T11:05:11.725Z,25.28
2023-08-21T11:07:46.775Z,25.34
2023-08-21T11:10:19.026Z,25.15
2023-08-21T11:12:58.356Z,25.01
2023-08-21T11:15:29.402Z,25.12
2023-08-21T11:17:57.847Z,25.28
2023-08-21T11:20:29.853Z,25.42
2023-08-21T11:23:06.354Z,25.47
2023-08-21T11:25:34.043Z,25.64
2023-08-21T11:28:03.473Z,25.76
2023-08-21T11:30:31.983Z,25.88
2023-08-21T11:33:12.874Z,25.94
2023-08-21T11:35:40.191Z,25.98
2023-08-21T11:38:10.247Z,25.92
2023-08-21T11:40:37.178Z,26.01
2023-08-21T11:43:06.302Z,26.07
2023-08-21T11:45:45.153Z,26.17
2023-08-21T11:48:21.031Z,26.20
2023-08-21T11:50:49.321Z,26.27
2023-08-21T11:53:15.875Z,26.41
2023-08-21T11:55:42.379Z,26.51
2023-08-21T11:58:08.979Z,26.64
2023-08-21T12:00:35.474Z,26.68
2023-08-21T12:03:04.008Z,26.80
2023-08-21T12:05:30.698Z,26.73
2023-08-21T12:07:57.549Z,26.65
2023-08-21T12:10:28.869Z,26.84
2023-08-21T12:12:56.018Z,26.91
2023-08-21T12:15:23.129Z,26.99
2023-08-21T12:17:49.665Z,27.07
2023-08-21T12:20:16.247Z,27.15
2023-08-21T12:22:45.770Z,27.16
2023-08-21T12:25:14.532Z,27.34
2023-08-21T12:27:41.374Z,27.30
2023-08-21T12:30:08.692Z,27.11
2023-08-21T12:32:35.215Z,26.99
2023-08-21T12:35:01.945Z,27.16
2023-08-21T12:37:28.635Z,27.33
2023-08-21T12:39:55.512Z,27.42
2023-08-21T12:42:22.025Z,27.36
2023-08-21T12:44:48.540Z,27.31
2023-08-21T12:47:15.077Z,27.37
2023-08-21T12:49:41.566Z,27.36
2023-08-21T12:52:10.439Z,27.33
2023-08-21T12:54:37.818Z,27.20
2023-08-21T12:57:04.615Z,27.35
2023-08-21T12:59:31.444Z,27.39
2023-08-21T13:02:01.369Z,27.25
2023-08-21T13:04:27.985Z,27.16
2023-08-21T13:06:54.484Z,27.23
2023-08-21T13:09:21.091Z,27.27
2023-08-21T13:11:47.596Z,27.36
2023-08-21T13:14:14.108Z,27.53
2023-08-21T13:16:40.637Z,27.55
2023-08-21T13:19:07.242Z,27.52
2023-08-21T13:21:36.683Z,27.61
2023-08-21T13:24:03.941Z,27.34
2023-08-21T13:26:32.369Z,27.30
2023-08-21T13:28:59.235Z,27.12
2023-08-21T13:31:25.798Z,27.08
2023-08-21T13:33:54.771Z,27.17
2023-08-21T13:36:25.679Z,27.40
2023-08-21T13:38:52.975Z,27.63
2023-08-21T13:41:19.530Z,27.43
2023-08-21T13:43:46.565Z,27.60
2023-08-21T13:46:13.566Z,27.76
2023-08-21T13:48:40.142Z,28.03
2023-08-21T13:51:06.672Z,28.39
2023-08-21T13:53:33.180Z,28.71
2023-08-21T13:55:59.739Z,28.59
2023-08-21T13:58:26.705Z,28.72
2023-08-21T14:00:53.240Z,29.00
2023-08-21T14:03:19.795Z,29.41
2023-08-21T14:05:46.301Z,29.56
2023-08-21T14:08:12.876Z,29.77
2023-08-21T14:10:39.747Z,30.08
2023-08-21T14:13:08.950Z,29.68
2023-08-21T14:15:35.786Z,29.10
2023-08-21T14:18:03.583Z,29.10
2023-08-21T14:20:30.230Z,29.22
2023-08-21T14:22:56.738Z,28.90
2023-08-21T14:25:23.285Z,28.63
2023-08-21T14:27:52.610Z,28.32
2023-08-21T14:30:19.095Z,28.81
2023-08-21T14:32:45.956Z,29.14
2023-08-21T14:35:12.693Z,29.38
2023-08-21T14:37:40.348Z,29.62
2023-08-21T14:40:09.048Z,30.13
2023-08-21T14:42:35.980Z,30.46
2023-08-21T14:45:02.806Z,30.85
2023-08-21T14:47:29.384Z,31.18
2023-08-21T14:49:56.071Z,31.17
2023-08-21T14:52:22.656Z,31.29
2023-08-21T14:54:51.376Z,31.55
2023-08-21T14:57:18.071Z,31.60
2023-08-21T14:59:44.565Z,31.67
2023-08-21T15:02:11.155Z,31.80
2023-08-21T15:04:38.067Z,31.83
2023-08-21T15:07:04.596Z,31.61
2023-08-21T15:09:31.083Z,31.68
2023-08-21T15:11:57.586Z,32.02
2023-08-21T15:14:24.164Z,32.35
2023-08-21T15:16:51.101Z,31.97
2023-08-21T15:19:18.193Z,32.07
2023-08-21T15:21:44.721Z,32.07
2023-08-21T15:24:11.243Z,31.89
2023-08-21T15:26:37.805Z,32.14
2023-08-21T15:29:04.314Z,32.25
2023-08-21T15:31:30.970Z,32.20
2023-08-21T15:33:57.485Z,32.16
2023-08-21T15:36:24.045Z,32.08
2023-08-21T15:38:50.574Z,31.82
2023-08-21T15:41:17.086Z,31.96
2023-08-21T15:43:43.564Z,32.08
2023-08-21T15:46:10.141Z,32.35
2023-08-21T15:48:37.002Z,32.47
2023-08-21T15:51:04.493Z,32.70
2023-08-21T15:53:31.348Z,32.32
2023-08-21T15:55:57.932Z,31.41
2023-08-21T15:58:24.498Z,30.88
2023-08-21T16:00:51.834Z,30.73
2023-08-21T16:03:18.405Z,31.15
2023-08-21T16:05:44.941Z,31.13
2023-08-21T16:08:11.459Z,31.51
2023-08-21T16:10:38.046Z,31.87
2023-08-21T16:13:04.910Z,32.07
2023-08-21T16:15:31.514Z,31.92
2023-08-21T16:17:58.116Z,31.53
2023-08-21T16:20:28.630Z,30.69
2023-08-21T16:22:55.922Z,29.91
2023-08-21T16:25:22.524Z,29.06
2023-08-21T16:27:49.009Z,29.07
2023-08-21T16:30:15.583Z,29.60
2023-08-21T16:32:42.263Z,29.17
2023-08-21T16:35:08.935Z,28.81
2023-08-21T16:37:35.471Z,28.33
2023-08-21T16:40:02.031Z,28.01
2023-08-21T16:42:28.566Z,27.71
2023-08-21T16:44:55.121Z,27.35
2023-08-21T16:47:21.777Z,27.11
2023-08-21T16:49:49.300Z,26.83
2023-08-21T16:52:16.880Z,26.66
2023-08-21T16:54:43.441Z,26.56
2023-08-21T16:57:11.274Z,26.38
2023-08-21T16:59:37.843Z,26.16
2023-08-21T17:02:04.350Z,26.08
2023-08-21T17:04:30.883Z,25.97
2023-08-21T17:06:57.414Z,25.90
2023-08-21T17:09:24.395Z,25.75
2023-08-21T17:11:50.890Z,25.63
2023-08-21T17:14:17.365Z,25.58
2023-08-21T17:16:44.507Z,25.57
2023-08-21T17:19:11.082Z,25.45
2023-08-21T17:21:37.581Z,25.25
2023-08-21T17:24:04.252Z,25.16
2023-08-21T17:26:30.791Z,25.08
2023-08-21T17:28:57.332Z,25.01
2023-08-21T17:31:23.866Z,24.90
2023-08-21T17:33:50.409Z,24.80
2023-08-21T17:36:16.963Z,24.70
2023-08-21T17:38:43.438Z,24.66
2023-08-21T17:41:10.105Z,24.59
2023-08-21T17:43:36.748Z,24.54
2023-08-21T17:46:03.539Z,24.48
2023-08-21T17:48:30.143Z,24.41
2023-08-21T17:50:56.624Z,24.41
2023-08-21T17:53:24.044Z,24.35
2023-08-21T17:55:50.532Z,24.25
2023-08-21T17:58:17.194Z,24.13
2023-08-21T18:00:43.757Z,24.00
2023-08-21T18:03:10.300Z,23.89
2023-08-21T18:05:36.820Z,23.83
2023-08-21T18:08:03.806Z,23.77
2023-08-21T18:10:33.454Z,23.65
2023-08-21T18:13:00.190Z,23.57
2023-08-21T18:15:27.355Z,23.42
2023-08-21T18:17:53.884Z,23.27
2023-08-21T18:20:22.928Z,23.18
2023-08-21T18:22:49.450Z,23.07
2023-08-21T18:25:16.002Z,22.86
2023-08-21T18:27:42.603Z,22.81
2023-08-21T18:30:19.331Z,22.81
2023-08-21T18:32:45.858Z,22.77
2023-08-21T18:35:12.524Z,22.59
2023-08-21T18:37:39.124Z,22.40
2023-08-21T18:40:06.927Z,22.22
2023-08-21T18:42:33.398Z,22.21
2023-08-21T18:44:59.976Z,22.10
2023-08-21T18:47:30.523Z,21.98
2023-08-21T18:49:57.287Z,21.89
2023-08-21T18:52:23.868Z,21.77
2023-08-21T18:54:50.338Z,21.72
2023-08-21T18:57:16.861Z,21.64
2023-08-21T18:59:43.323Z,21.57
2023-08-21T19:02:09.812Z,21.48
2023-08-21T19:04:36.343Z,21.35
2023-08-21T19:07:07.184Z,21.29
2023-08-21T19:09:34.597Z,21.19
2023-08-21T19:12:01.214Z,21.12
2023-08-21T19:14:27.827Z,21.02
2023-08-21T19:16:55.472Z,20.96
2023-08-21T19:19:22.187Z,20.83
2023-08-21T19:21:48.695Z,20.70
2023-08-21T19:24:16.107Z,20.58
2023-08-21T19:26:42.697Z,20.49
2023-08-21T19:29:09.622Z,20.39
2023-08-21T19:31:36.172Z,20.31
2023-08-21T19:34:04.191Z,20.25
2023-08-21T19:36:30.711Z,20.17
2023-08-21T19:38:57.204Z,20.07
2023-08-21T19:41:23.852Z,20.01
2023-08-21T19:43:50.349Z,19.94
2023-08-21T19:46:16.874Z,19.84
2023-08-21T19:48:43.459Z,19.76
2023-08-21T19:51:09.947Z,19.70
2023-08-21T19:53:36.416Z,19.60
2023-08-21T19:56:04.693Z,19.52
2023-08-21T19:58:31.534Z,19.47
2023-08-21T20:00:58.148Z,19.40
2023-08-21T20:03:24.878Z,19.34
2023-08-21T20:05:51.464Z,19.28
2023-08-21T20:08:18.593Z,19.25
2023-08-21T20:10:45.085Z,19.19
2023-08-21T20:13:11.626Z,19.13
2023-08-21T20:15:38.152Z,19.06
2023-08-21T20:18:05.287Z,19.00
2023-08-21T20:20:31.919Z,18.98
2023-08-21T20:22:58.491Z,18.96
2023-08-21T20:25:25.019Z,18.90
2023-08-21T20:27:51.632Z,18.81
2023-08-21T20:30:18.260Z,18.81
2023-08-21T20:32:45.122Z,18.75
2023-08-21T20:35:11.684Z,18.70
2023-08-21T20:37:41.581Z,18.58
2023-08-21T20:40:10.242Z,18.47
2023-08-21T20:42:36.881Z,18.42
2023-08-21T20:45:05.877Z,18.40
2023-08-21T20:47:33.860Z,18.31
2023-08-21T20:50:00.557Z,18.24
2023-08-21T20:52:27.304Z,18.18
2023-08-21T20:54:54.026Z,18.18
2023-08-21T20:57:20.907Z,18.14
2023-08-21T20:59:47.738Z,18.05
2023-08-21T21:02:14.401Z,18.04
2023-08-21T21:04:41.018Z,17.98
2023-08-21T21:07:08.135Z,17.96
2023-08-21T21:09:35.019Z,17.93
2023-08-21T21:12:01.869Z,17.90
2023-08-21T21:14:28.474Z,17.88
2023-08-21T21:16:55.086Z,17.79
2023-08-21T21:19:21.994Z,17.76
2023-08-21T21:21:48.470Z,17.72
2023-08-21T21:24:15.085Z,17.64
2023-08-21T21:26:42.567Z,17.64
2023-08-21T21:29:09.883Z,17.61
2023-08-21T21:31:37.058Z,17.57
2023-08-21T21:34:03.909Z,17.57
2023-08-21T21:36:30.838Z,17.55
2023-08-21T21:38:57.316Z,17.53
2023-08-21T21:41:23.870Z,17.53
2023-08-21T21:43:50.403Z,17.50
2023-08-21T21:46:18.298Z,17.46
2023-08-21T21:48:44.818Z,17.43
2023-08-21T21:51:11.319Z,17.36
2023-08-21T21:53:37.877Z,17.32
2023-08-21T21:56:05.397Z,17.31
2023-08-21T21:58:31.988Z,17.31
2023-08-21T22:00:58.718Z,17.26
2023-08-21T22:03:25.324Z,17.23
2023-08-21T22:05:51.887Z,17.19
2023-08-21T22:08:18.452Z,17.20
2023-08-21T22:10:44.969Z,17.19
2023-08-21T22:13:12.051Z,17.16
2023-08-21T22:15:38.859Z,17.18
2023-08-21T22:18:06.285Z,17.14
2023-08-21T22:20:34.660Z,17.13
2023-08-21T22:23:01.290Z,17.11
2023-08-21T22:25:27.833Z,17.10
2023-08-21T22:27:54.291Z,17.13
2023-08-21T22:30:20.954Z,17.11
2023-08-21T22:32:47.750Z,17.08
2023-08-21T22:35:16.447Z,17.10
2023-08-21T22:37:43.724Z,17.09
2023-08-21T22:40:10.550Z,17.10
2023-08-21T22:42:37.860Z,17.08
2023-08-21T22:45:04.744Z,17.08
2023-08-21T22:47:31.399Z,17.06
2023-08-21T22:50:00.238Z,17.04
2023-08-21T22:52:27.910Z,17.04
2023-08-21T22:54:55.283Z,17.01
2023-08-21T22:57:21.907Z,16.98
2023-08-21T22:59:48.466Z,16.97
2023-08-21T23:02:15.150Z,16.93
2023-08-21T23:04:41.792Z,16.91
2023-08-21T23:07:08.337Z,16.89
2023-08-21T23:09:36.523Z,16.92
2023-08-21T23:12:03.119Z,16.94
2023-08-21T23:14:31.492Z,16.94
2023-08-21T23:16:57.961Z,16.92
2023-08-21T23:19:24.580Z,16.94
2023-08-21T23:21:51.130Z,16.92
2023-08-21T23:24:17.637Z,16.90
2023-08-21T23:26:44.193Z,16.85
2023-08-21T23:29:10.710Z,16.87
2023-08-21T23:31:37.262Z,16.87
2023-08-21T23:34:03.779Z,16.87
2023-08-21T23:36:30.471Z,16.85
2023-08-21T23:38:56.964Z,16.83
2023-08-21T23:41:23.448Z,16.86
2023-08-21T23:43:49.959Z,16.91
2023-08-21T23:46:16.801Z,16.93
2023-08-21T23:48:43.485Z,16.98
2023-08-21T23:51:10.794Z,16.95
2023-08-21T23:53:37.597Z,16.99
2023-08-21T23:56:05.762Z,17.00
2023-08-21T23:58:32.356Z,16.98
